Saturday, May 26, 2018, 12:11 PM GMT
Back to Local

CYPD, Port Hawkesbury

Location: , , Canada Lat: 45.667
Local Time: 12:11 PM GMT (12:11 GMT) Lon: -61.383
Time Zone: GMT Elev: 374 ft

Show me the last for .
Show Decoded

2018-05-26 12:01 METAR CYPD 261201Z AUTO 03005KT 010V110 8SM -RA BKN002 OVC027 10/10 A2964 RMK
                 SLP041 =
2018-05-26 11:50 METAR CYPD 261150Z AUTO 08005KT 360V090 3SM -RA BR OVC002 10/10 A2963 RMK PRESRR
                 SLP038 =
2018-05-26 11:47 METAR CYPD 261147Z AUTO 05004KT 360V080 4SM BR OVC002 10/10 A2964 RMK PRESRR
                 SLP040 =
2018-05-26 11:40 METAR CYPD 261140Z AUTO 03008KT 6SM BR OVC002 10/10 A2963 RMK PRESRR SLP037
2018-05-26 11:20 METAR CYPD 261120Z AUTO 04008KT 3SM BR BKN002 OVC024 10/10 A2961 RMK SLP032 =
2018-05-26 11:08 METAR CYPD 261108Z AUTO 04009KT 4SM -RA BR BKN002 OVC024 10/09 A2961 RMK SLP032
                 =
2018-05-26 11:00 METAR CYPD 261100Z AUTO 05006KT 4SM BR BKN002 BKN024 OVC085 10/09 A2961 RMK
                 SLP031 =
2018-05-26 10:54 METAR CYPD 261054Z AUTO 04007KT 4SM BR BKN004 BKN024 OVC085 10/09 A2962 RMK
                 SLP033 =
2018-05-26 10:44 METAR CYPD 261044Z AUTO 05007KT 3SM -RA BR BKN004 BKN085 10/09 A2961 RMK SLP030
                 =
2018-05-26 10:00 METAR CYPD 261000Z AUTO 05005KT 2SM -RA BR BKN002 BKN015 BKN080 OVC098 09/09
                 A2960 RMK SLP026 =
2018-05-26 09:54 METAR CYPD 260954Z AUTO 06005KT 050V120 2 1/4SM -RA BR SCT004 BKN019 BKN030
                 OVC096 09/09 A2959 RMK SLP025 =
2018-05-26 09:49 METAR CYPD 260949Z AUTO 09004KT 050V120 3SM -RA BR SCT004 BKN021 BKN030 OVC097
                 09/09 A2959 RMK SLP025 =
2018-05-26 09:33 METAR CYPD 260933Z AUTO 07003KT 360V090 2 1/2SM -RA BR SCT004 SCT016 BKN029
                 OVC080 09/09 A2960 RMK SLP028 =
2018-05-26 09:01 METAR CYPD 260901Z AUTO 08003KT 020V110 3/4SM -RA BR OVC002 09/09 A2960 RMK
                 SLP027 =
2018-05-26 09:00 METAR CYPD 260900Z AUTO 09003KT 020V110 3/4SM BR OVC002 09/09 A2960 RMK SLP027 =
2018-05-26 08:14 METAR CYPD 260814Z AUTO 04005KT 1 3/4SM BR OVC002 09/08 A2958 RMK SLP022 =
2018-05-26 08:00 METAR CYPD 260800Z AUTO 09004KT 060V150 2SM -RA BR BKN002 OVC008 09/09 A2958 RMK
                 SLP020 =
2018-05-26 07:00 METAR CYPD 260700Z AUTO VRB02KT 5/8SM -RA BR VV003 09/08 A2960 RMK SLP027 =
2018-05-26 06:40 METAR CYPD 260640Z AUTO 03003KT 010V080 1SM -RA BR OVC002 09/08 A2960 RMK SLP026
2018-05-26 06:18 METAR CYPD 260618Z AUTO 04006KT 1SM BR OVC002 09/08 A2959 RMK SLP024 =
2018-05-26 06:03 METAR CYPD 260603Z AUTO 07004KT 1 1/4SM -RA BR OVC002 08/08 A2959 RMK SLP024 =
2018-05-26 06:00 METAR CYPD 260600Z AUTO 07003KT 1 1/4SM BR OVC002 08/08 A2960 RMK SLP026 =
2018-05-26 05:50 METAR CYPD 260550Z AUTO 09004KT 2 1/4SM BR BKN002 OVC075 08/08 A2958 RMK SLP022
                 =
2018-05-26 05:26 METAR CYPD 260526Z AUTO 08005KT 4SM BR BKN002 OVC085 09/08 A2960 RMK SLP026 =
2018-05-26 05:11 METAR CYPD 260511Z AUTO 05003KT 5SM BR FEW002 OVC080 09/09 A2960 RMK SLP027 =
2018-05-26 05:00 METAR CYPD 260500Z AUTO 06003KT 6SM BR FEW002 OVC080 09/09 A2960 RMK SLP026 =
2018-05-26 04:59 METAR CYPD 260459Z AUTO 06004KT 6SM BR FEW002 OVC080 09/09 A2960 RMK SLP026 =
2018-05-26 04:38 METAR CYPD 260438Z AUTO VRB02KT 9SM -RA OVC085 09/09 A2961 RMK SLP029 =
2018-05-26 04:26 METAR CYPD 260426Z AUTO 07003KT 9SM OVC090 09/09 A2961 RMK SLP031 =
2018-05-26 04:16 METAR CYPD 260416Z AUTO 04004KT 360V120 6SM -RA BR OVC095 09/09 A2961 RMK SLP031
                 =
2018-05-26 04:00 METAR CYPD 260400Z AUTO 17003KT 070V210 4SM -RA BR OVC095 09/09 A2961 RMK SLP031
                 =
2018-05-26 03:46 METAR CYPD 260346Z AUTO 10004KT 100V160 5SM -RA BR OVC090 09/09 A2961 RMK PRESFR
                 SLP032 =
2018-05-26 03:31 METAR CYPD 260331Z AUTO VRB02KT 9SM -RA OVC085 10/09 A2963 RMK PRESRR SLP037 =
2018-05-26 03:00 METAR CYPD 260300Z AUTO 05004KT 9SM OVC085 10/10 A2961 RMK SLP029 =
2018-05-26 02:08 METAR CYPD 260208Z AUTO 19002KT 9SM OVC095 11/10 A2963 RMK SLP038 =
2018-05-26 02:00 METAR CYPD 260200Z AUTO 21002KT 9SM -RA BKN095 OVC120 10/10 A2964 RMK SLP041 =
2018-05-26 01:54 METAR CYPD 260154Z AUTO 21003KT 9SM -RA BKN090 OVC110 10/09 A2964 RMK SLP040 =
2018-05-26 01:00 METAR CYPD 260100Z AUTO 14003KT 9SM FEW110 SCT140 10/09 A2964 RMK SLP040 =
2018-05-26 00:00 METAR CYPD 260000Z AUTO 19003KT 110V200 9SM FEW110 10/09 A2963 RMK PRESRR SLP037
                 =
2018-05-25 23:00 METAR CYPD 252300Z AUTO 29003KT 9SM CLR 13/10 A2960 RMK SLP027 DENSITY ALT 600FT
                 =
2018-05-25 22:00 METAR CYPD 252200Z AUTO 30005KT 9SM SCT060 SCT077 BKN089 15/11 A2960 RMK SLP026
                 DENSITY ALT 700FT =
2018-05-25 21:00 METAR CYPD 252100Z AUTO 26005KT 9SM FEW027 SCT040 OVC049 13/10 A2959 RMK SLP024
                 DENSITY ALT 600FT =
2018-05-25 20:00 METAR CYPD 252000Z AUTO 23004KT 9SM OVC027 13/10 A2959 RMK SLP023 DENSITY ALT
                 500FT =
2018-05-25 19:00 METAR CYPD 251900Z AUTO 26013G20KT 9SM OVC025 14/10 A2958 RMK SLP020 DENSITY ALT
                 700FT =
2018-05-25 18:00 METAR CYPD 251800Z AUTO 23011G20KT 9SM SCT014 BKN027 BKN035 OVC050 11/09 A2958
                 RMK SLP022 DENSITY ALT 400FT =
2018-05-25 17:59 METAR CYPD 251759Z AUTO 23011G20KT 9SM SCT014 BKN027 BKN035 OVC050 11/09 A2958
                 RMK SLP022 =
2018-05-25 17:00 METAR CYPD 251700Z AUTO 24010G19KT 9SM OVC010 10/09 A2960 RMK SLP029 =
2018-05-25 16:43 METAR CYPD 251643Z AUTO 24009G16KT 210V290 9SM OVC010 10/08 A2961 RMK SLP032 =
2018-05-25 16:00 METAR CYPD 251600Z AUTO 25011G16KT 210V290 9SM OVC008 09/08 A2962 RMK SLP035 =
2018-05-25 15:00 METAR CYPD 251500Z AUTO 18008KT 150V220 9SM OVC006 07/07 A2965 RMK PRESFR SLP044
                 =
2018-05-25 14:00 METAR CYPD 251400Z AUTO 15004KT 120V200 9SM OVC008 06/06 A2969 RMK PRESFR SLP058
                 =
2018-05-25 13:53 METAR CYPD 251353Z AUTO 17005KT 150V210 9SM OVC008 06/06 A2969 RMK PRESFR SLP060
                 =
2018-05-25 13:00 METAR CYPD 251300Z AUTO 22008KT 180V250 7SM -RA OVC008 06/05 A2974 RMK SLP077 =

Support USWX by starting your Amazon purchase here.